Time;durP1;ratioP1;P1;durP2;ratioP2;P2;SDS_P1;SDS_P2;PMS_P1;PMS_P2;Temp;Humidity;BMP_temperature;BMP_pressure;BME280_temperature;BME280_humidity;BME280_pressure;Samples;Min_cycle;Max_cycle;Signal;HPM_P1;HPM_P2
2021/01/07 10:09:36;;;;;;;40.17;18.80;;;;;;;3.30;90.14;100146.86;1816043;77;28734;-80
2021/01/07 10:12:05;;;;;;;;;;;;;;;3.27;89.96;100148.11;1782210;79;21625;-78
2021/01/07 10:14:34;;;;;;;41.95;19.82;;;;;;;3.25;90.00;100145.29;1770561;78;20249;-76
2021/01/07 10:17:06;;;;;;;47.73;24.05;;;;;;;3.24;90.09;100139.58;1781540;78;21120;-76
2021/01/07 10:19:36;;;;;;;48.17;22.90;;;;;;;3.21;90.09;100135.42;1796160;78;21776;-77
2021/01/07 10:22:15;;;;;;;50.43;25.57;;;;;;;3.23;90.17;100133.84;1770180;78;21569;-76
2021/01/07 10:24:45;;;;;;;46.45;22.87;;;;;;;3.19;90.04;100131.55;1793837;78;21175;-79
2021/01/07 10:27:15;;;;;;;45.03;23.90;;;;;;;3.16;90.10;100127.89;1777683;78;21126;-77
2021/01/07 10:29:44;;;;;;;51.55;25.35;;;;;;;3.14;90.13;100134.03;1791869;78;21557;-77
2021/01/07 10:32:16;;;;;;;54.13;23.85;;;;;;;3.14;90.20;100131.33;1769416;78;21215;-77
2021/01/07 10:34:49;;;;;;;49.48;24.43;;;;;;;3.13;90.14;100125.62;1759373;78;21171;-78
2021/01/07 10:37:20;;;;;;;41.80;21.50;;;;;;;3.12;90.17;100133.41;1794680;78;21689;-79
2021/01/07 10:39:50;;;;;;;51.95;24.07;;;;;;;3.14;90.36;100123.21;1777300;79;21697;-79
2021/01/07 10:42:19;;;;;;;51.00;24.02;;;;;;;3.15;90.37;100118.13;1785662;78;21216;-79
2021/01/07 10:44:47;;;;;;;49.85;24.25;;;;;;;3.16;90.36;100115.72;1786430;78;22186;-75
2021/01/07 10:47:15;;;;;;;49.95;25.25;;;;;;;3.17;90.40;100110.64;1739431;81;21155;-77
2021/01/07 10:49:45;;;;;;;;;;;;;;;3.17;90.26;100112.50;1712462;83;21147;-75
2021/01/07 10:52:35;;;;;;;56.30;26.07;;;;;;;3.15;90.32;100104.61;1720602;81;20194;-75
2021/01/07 10:55:12;;;;;;;54.38;24.85;;;;;;;3.13;90.37;100099.09;1690575;81;21145;-75
2021/01/07 10:58:21;;;;;;;56.83;25.68;;;;;;;3.11;90.48;100093.87;1725680;81;21132;-73
2021/01/07 11:01:18;;;;;;;56.15;24.72;;;;;;;3.10;90.54;100084.63;1726027;81;21132;-74
2021/01/07 11:04:09;;;;;;;53.25;23.57;;;;;;;3.09;90.77;100077.53;1733608;81;21167;-75
2021/01/07 11:06:39;;;;;;;45.35;23.05;;;;;;;3.10;90.84;100071.94;1715899;81;21140;-75
2021/01/07 11:09:18;;;;;;;50.38;24.00;;;;;;;3.10;90.87;100064.34;1725512;81;21558;-74
2021/01/07 11:11:51;;;;;;;48.13;23.35;;;;;;;3.12;90.99;100062.26;1733694;82;21174;-75
2021/01/07 11:14:29;;;;;;;47.65;24.63;;;;;;;3.12;91.00;100054.15;1730435;81;21136;-75
2021/01/07 11:17:00;;;;;;;47.98;23.22;;;;;;;3.12;91.02;100057.69;1746814;80;21167;-75
2021/01/07 11:19:29;;;;;;;47.78;24.65;;;;;;;3.13;91.05;100052.61;1729271;81;21132;-76
2021/01/07 11:22:11;;;;;;;50.28;23.38;;;;;;;3.11;91.04;100050.60;1716201;82;21132;-76
2021/01/07 11:24:40;;;;;;;53.10;26.15;;;;;;;3.12;91.12;100050.09;1732995;81;21769;-77
2021/01/07 11:27:15;;;;;;;51.68;25.15;;;;;;;3.15;91.21;100038.36;1728676;82;21156;-77
2021/01/07 11:29:40;;;;;;;51.10;26.17;;;;;;;3.15;91.14;100043.77;1726426;81;21195;-78
2021/01/07 11:32:09;;;;;;;;;;;;;;;3.16;91.16;100042.70;1730417;81;21753;-76
2021/01/07 11:34:37;;;;;;;54.30;25.52;;;;;;;3.15;91.29;100039.70;1724999;81;20205;-77
2021/01/07 11:37:32;;;;;;;55.50;26.77;;;;;;;3.15;91.40;100046.47;1730055;81;21297;-80
2021/01/07 11:40:10;;;;;;;50.98;25.00;;;;;;;3.16;91.44;100037.84;1716162;81;21136;-79
2021/01/07 11:43:16;;;;;;;49.07;24.87;;;;;;;3.18;91.40;100043.36;1722662;81;21219;-79
2021/01/07 11:45:48;;;;;;;47.95;25.08;;;;;;;3.20;91.43;100043.98;1733808;81;21128;-76
2021/01/07 11:48:18;;;;;;;49.90;24.57;;;;;;;3.24;91.41;100034.11;1733498;81;21085;-75
2021/01/07 11:50:48;;;;;;;50.60;25.27;;;;;;;3.24;91.33;100035.46;1726884;81;21228;-76
2021/01/07 11:53:16;;;;;;;50.55;24.60;;;;;;;3.27;91.37;100025.55;1703380;82;21148;-79
2021/01/07 11:55:44;;;;;;;46.85;23.80;;;;;;;3.30;91.32;100034.61;1700164;82;22028;-76
2021/01/07 11:58:17;;;;;;;47.20;24.02;;;;;;;3.30;91.24;100023.80;1732772;82;21659;-77
2021/01/07 12:00:48;;;;;;;42.90;23.75;;;;;;;3.32;91.21;100023.06;1735059;81;21132;-75
2021/01/07 12:03:16;;;;;;;48.17;24.63;;;;;;;3.30;91.05;100018.38;1724320;81;21223;-79
2021/01/07 12:05:44;;;;;;;45.43;23.10;;;;;;;3.29;91.02;100016.73;1742306;81;21122;-75
2021/01/07 12:08:28;;;;;;;47.55;24.65;;;;;;;3.30;91.07;100018.38;1729011;81;21250;-78
2021/01/07 12:10:58;;;;;;;45.85;23.55;;;;;;;3.30;91.05;100011.62;1723929;81;21220;-78
2021/01/07 12:13:53;;;;;;;44.35;23.83;;;;;;;3.30;91.09;100007.56;1726966;81;21112;-80
2021/01/07 12:16:25;;;;;;;43.63;23.77;;;;;;;3.31;91.14;100003.32;1731006;81;21229;-80
2021/01/07 12:18:53;;;;;;;47.75;23.55;;;;;;;3.32;91.10;99996.85;1723221;81;21234;-74
2021/01/07 12:21:21;;;;;;;40.65;22.27;;;;;;;3.31;90.93;99997.91;1734600;81;21172;-78
2021/01/07 12:23:49;;;;;;;44.63;22.80;;;;;;;3.29;90.91;99992.39;1725878;81;21262;-80
2021/01/07 12:26:18;;;;;;;45.52;23.32;;;;;;;3.26;90.83;99988.23;1720202;81;21160;-78
2021/01/07 12:28:50;;;;;;;46.83;23.65;;;;;;;3.23;90.91;99987.30;1733298;81;21092;-78
2021/01/07 12:31:19;;;;;;;44.53;23.30;;;;;;;3.23;90.99;99979.69;1728568;82;21543;-79
2021/01/07 12:34:20;;;;;;;51.10;25.75;;;;;;;3.20;90.96;99981.78;1725979;81;21603;-79
2021/01/07 12:37:16;;;;;;;51.30;25.37;;;;;;;3.20;91.07;99979.08;1725006;81;21117;-81
2021/01/07 12:39:52;;;;;;;53.02;25.12;;;;;;;3.19;90.97;99978.75;1669199;82;21109;-85
2021/01/07 12:42:30;;;;;;;53.02;25.52;;;;;;;3.19;90.99;99977.91;1723770;82;21621;-78
2021/01/07 12:45:01;;;;;;;51.50;25.65;;;;;;;3.19;91.03;99980.09;1720846;82;21119;-80
2021/01/07 12:47:29;;;;;;;56.60;26.48;;;;;;;3.17;90.96;99973.23;1730501;81;21954;-77
2021/01/07 12:49:57;;;;;;;50.75;26.02;;;;;;;3.17;91.07;99974.59;1723548;81;21134;-82
2021/01/07 12:52:26;;;;;;;54.67;27.30;;;;;;;3.17;91.11;99970.53;1730636;82;21137;-85
2021/01/07 12:54:54;;;;;;;48.70;25.37;;;;;;;3.17;91.08;99974.08;1741569;81;21718;-76
2021/01/07 12:57:26;;;;;;;48.20;23.52;;;;;;;3.18;91.09;99969.50;1729879;82;21120;-76
2021/01/07 13:00:07;;;;;;;48.28;25.43;;;;;;;3.18;91.04;99968.99;1721023;81;21317;-73
2021/01/07 13:03:12;;;;;;;47.70;23.65;;;;;;;3.16;91.00;99961.58;1726618;81;21133;-78
2021/01/07 13:05:53;;;;;;;51.45;25.17;;;;;;;3.18;91.01;99967.64;1725376;81;21638;-78
2021/01/07 13:08:21;;;;;;;46.90;24.12;;;;;;;3.18;91.07;99962.23;1734295;82;21167;-79
2021/01/07 13:10:54;;;;;;;46.77;23.65;;;;;;;3.17;91.04;99961.06;1731952;81;21204;-78
2021/01/07 13:13:27;;;;;;;52.08;23.83;;;;;;;3.19;91.18;99956.28;1721030;81;21152;-79
2021/01/07 13:15:52;;;;;;;43.70;24.00;;;;;;;3.21;91.23;99950.97;1722322;81;21127;-79
2021/01/07 13:18:20;;;;;;;46.85;24.40;;;;;;;3.23;91.18;99952.65;1728246;82;21313;-77
2021/01/07 13:20:48;;;;;;;44.93;23.27;;;;;;;3.24;91.19;99952.42;1728868;81;21231;-76
2021/01/07 13:23:16;;;;;;;42.55;22.80;;;;;;;3.27;91.27;99954.72;1731279;82;21147;-78
2021/01/07 13:25:44;;;;;;;41.05;21.77;;;;;;;3.25;91.23;99939.74;1727839;81;21192;-72
2021/01/07 13:28:12;;;;;;;46.30;22.42;;;;;;;3.27;91.34;99948.47;1727810;82;21155;-73
2021/01/07 13:30:40;;;;;;;46.40;23.00;;;;;;;3.28;91.39;99948.80;1725977;82;21194;-75
2021/01/07 13:33:08;;;;;;;43.15;22.73;;;;;;;3.29;91.44;99943.17;1720387;81;21634;-76
2021/01/07 13:35:39;;;;;;;42.85;22.45;;;;;;;3.31;91.49;99947.87;1684806;82;21456;-80
2021/01/07 13:38:10;;;;;;;49.00;22.42;;;;;;;3.32;91.51;99942.75;1725167;82;21140;-79
2021/01/07 13:40:38;;;;;;;46.70;23.70;;;;;;;3.32;91.46;99943.27;1724358;82;21134;-79
2021/01/07 13:43:08;;;;;;;46.42;22.95;;;;;;;3.31;91.42;99933.00;1723904;81;21164;-73
2021/01/07 13:45:35;;;;;;;45.23;22.35;;;;;;;3.30;91.47;99936.73;1723794;82;21118;-75
2021/01/07 13:48:05;;;;;;;49.75;23.62;;;;;;;3.29;91.55;99922.08;1727655;82;21206;-76
2021/01/07 13:50:34;;;;;;;48.95;23.83;;;;;;;3.29;91.58;99920.72;1719631;82;21623;-75
2021/01/07 13:53:03;;;;;;;52.33;24.07;;;;;;;3.29;91.63;99915.31;1689851;83;21176;-79
2021/01/07 13:55:33;;;;;;;51.10;25.25;;;;;;;3.29;91.59;99913.96;1734940;82;21140;-76
2021/01/07 13:58:01;;;;;;;53.58;24.23;;;;;;;3.29;91.68;99916.12;1706991;81;21191;-76
2021/01/07 14:00:31;;;;;;;51.00;24.63;;;;;;;3.31;91.70;99911.36;1733339;80;21616;-79
2021/01/07 14:02:59;;;;;;;51.90;24.63;;;;;;;3.33;91.75;99908.43;1741178;80;21146;-76
2021/01/07 14:05:26;;;;;;;50.30;24.63;;;;;;;3.34;91.80;99901.98;1745583;80;21584;-78
2021/01/07 14:08:00;;;;;;;49.35;24.25;;;;;;;3.34;91.75;99900.64;1738139;80;21338;-80
2021/01/07 14:10:31;;;;;;;50.73;24.57;;;;;;;3.34;91.76;99898.73;1731848;81;21501;-87
2021/01/07 14:12:59;;;;;;;54.05;25.68;;;;;;;3.32;91.68;99890.52;1750683;80;21519;-79
2021/01/07 14:15:27;;;;;;;53.17;23.93;;;;;;;3.32;91.78;99890.52;1741650;79;21138;-80
2021/01/07 14:17:55;;;;;;;53.35;24.52;;;;;;;3.32;91.85;99881.05;1741674;81;21105;-78
2021/01/07 14:20:23;;;;;;;50.08;24.05;;;;;;;3.32;91.78;99878.35;1729121;81;21132;-84
2021/01/07 14:22:51;;;;;;;53.05;24.80;;;;;;;3.30;91.84;99868.27;1729044;81;21136;-77
2021/01/07 14:25:20;;;;;;;51.35;25.23;;;;;;;3.29;91.88;99861.22;1719519;81;21166;-81
2021/01/07 14:27:52;;;;;;;48.63;23.75;;;;;;;3.28;91.88;99853.63;1721672;81;21100;-76
2021/01/07 14:30:22;;;;;;;50.60;24.23;;;;;;;3.29;91.92;99850.40;1719868;81;21256;-82
2021/01/07 14:32:49;;;;;;;45.92;22.15;;;;;;;3.28;91.95;99843.31;1716812;81;21149;-79
2021/01/07 14:35:18;;;;;;;46.63;22.40;;;;;;;3.28;92.02;99834.69;1749359;80;21097;-80
2021/01/07 14:37:49;;;;;;;40.95;20.60;;;;;;;3.28;92.03;99836.04;1745790;81;21551;-89
2021/01/07 14:40:21;;;;;;;39.70;20.60;;;;;;;3.29;91.99;99830.12;1723577;82;21171;-91
2021/01/07 14:42:49;;;;;;;36.73;19.23;;;;;;;3.29;91.94;99827.41;1745114;80;21130;-79
2021/01/07 14:45:22;;;;;;;40.50;19.32;;;;;;;3.28;92.04;99828.44;1747386;80;21175;-86
2021/01/07 14:47:54;;;;;;;41.13;20.03;;;;;;;3.26;91.99;99825.13;1689713;82;21172;-82
2021/01/07 14:50:30;;;;;;;37.50;19.12;;;;;;;3.27;92.10;99815.95;1721813;81;21135;-86
2021/01/07 14:53:07;;;;;;;43.38;20.30;;;;;;;3.25;92.10;99815.34;1751408;78;21148;-81
2021/01/07 14:55:35;;;;;;;41.48;20.90;;;;;;;3.24;92.11;99812.34;1737925;78;21168;-85
2021/01/07 14:58:23;;;;;;;38.45;20.95;;;;;;;3.21;92.15;99804.94;1708259;82;21149;-83
2021/01/07 15:01:06;;;;;;;41.55;20.43;;;;;;;3.20;92.14;99797.89;1717097;81;21603;-76
2021/01/07 15:03:53;;;;;;;35.10;18.85;;;;;;;3.18;92.18;99766.17;1729104;80;21172;-73
2021/01/07 15:06:33;;;;;;;38.40;20.68;;;;;;;3.19;92.28;99784.56;1722323;81;21244;-78
2021/01/07 15:09:07;;;;;;;39.48;19.70;;;;;;;3.21;92.37;99771.68;1717848;82;21608;-80
2021/01/07 15:11:40;;;;;;;30.45;16.77;;;;;;;3.21;92.33;99748.15;1729372;81;21250;-82
2021/01/07 15:14:19;;;;;;;32.10;16.82;;;;;;;3.23;92.33;99733.08;1699312;81;21203;-83
2021/01/07 15:17:04;;;;;;;29.67;17.25;;;;;;;3.23;92.25;99726.83;1721241;81;21234;-82
2021/01/07 15:19:43;;;;;;;33.00;18.02;;;;;;;3.20;92.27;99714.06;1731315;81;21642;-85
2021/01/07 15:22:32;;;;;;;33.70;19.17;;;;;;;3.22;92.28;99724.64;1729056;82;21260;-83
2021/01/07 15:25:06;;;;;;;32.98;18.50;;;;;;;3.23;92.36;99728.19;1740986;82;21184;-85
2021/01/07 15:27:43;;;;;;;28.42;16.48;;;;;;;3.26;92.37;99716.95;1731288;81;21179;-82
2021/01/07 15:30:13;;;;;;;30.37;17.30;;;;;;;3.27;92.34;99736.16;1726695;81;21141;-81
2021/01/07 15:33:05;;;;;;;29.80;16.37;;;;;;;3.27;92.43;99730.76;1722391;81;21149;-75
2021/01/07 15:35:53;;;;;;;28.40;16.05;;;;;;;3.28;92.49;99729.21;1744967;80;21573;-78
2021/01/07 15:39:11;;;;;;;28.67;16.15;;;;;;;3.30;92.52;99731.17;1738632;80;21125;-75
2021/01/07 15:42:30;;;;;;;29.82;16.50;;;;;;;3.32;92.64;99721.48;1706684;81;21155;-76
2021/01/07 15:45:54;;;;;;;29.25;16.60;;;;;;;3.36;92.71;99713.27;1712070;81;21190;-83
2021/01/07 15:49:08;;;;;;;28.00;15.93;;;;;;;3.39;92.72;99725.02;1730874;81;21116;-75
2021/01/07 15:51:55;;;;;;;30.80;15.78;;;;;;;3.43;92.80;99727.06;1727989;81;21169;-83
2021/01/07 15:54:58;;;;;;;28.02;16.20;;;;;;;3.46;92.86;99725.80;1720526;81;21194;-77
2021/01/07 15:57:58;;;;;;;30.27;16.60;;;;;;;3.47;92.93;99713.40;1734362;81;21104;-84
2021/01/07 16:00:28;;;;;;;28.47;15.65;;;;;;;3.50;92.93;99705.38;1729241;81;21222;-82
2021/01/07 16:03:03;;;;;;;29.42;16.50;;;;;;;3.52;92.98;99706.81;1725680;81;21139;-75
2021/01/07 16:05:31;;;;;;;32.60;18.42;;;;;;;3.53;92.98;99706.30;1738759;81;21271;-73
2021/01/07 16:08:05;;;;;;;32.00;17.95;;;;;;;3.53;92.95;99688.20;1715427;82;21179;-75
2021/01/07 16:10:35;;;;;;;32.50;17.45;;;;;;;3.53;92.92;99680.08;1733000;82;21158;-76
2021/01/07 16:13:04;;;;;;;51.65;27.98;;;;;;;3.55;92.97;99675.80;1726543;81;21186;-73
2021/01/07 16:15:33;;;;;;;30.52;16.95;;;;;;;3.56;93.02;99668.83;1732878;82;21598;-75
2021/01/07 16:18:03;;;;;;;31.77;16.57;;;;;;;3.58;93.05;99649.66;1718844;81;21258;-78
2021/01/07 16:20:33;;;;;;;28.95;16.35;;;;;;;3.60;93.10;99659.22;1736063;82;21278;-77
2021/01/07 16:23:05;;;;;;;27.32;15.50;;;;;;;3.62;93.13;99646.29;1708450;81;21203;-88
2021/01/07 16:25:55;;;;;;;24.02;14.73;;;;;;;3.65;93.18;99634.20;1734951;82;21136;-79
2021/01/07 16:28:23;;;;;;;28.75;15.50;;;;;;;3.66;93.19;99635.87;1730582;83;21207;-79
2021/01/07 16:30:51;;;;;;;26.37;14.38;;;;;;;3.68;93.19;99621.08;1707649;82;21595;-77
2021/01/07 16:33:19;;;;;;;26.17;14.57;;;;;;;3.69;93.17;99620.55;1705144;83;21151;-80
2021/01/07 16:35:47;;;;;;;26.10;15.50;;;;;;;3.69;93.21;99614.59;1731163;81;21132;-82
2021/01/07 16:38:15;;;;;;;30.17;18.57;;;;;;;3.71;93.28;99618.45;1652806;83;21185;-79
2021/01/07 16:40:43;;;;;;;29.63;17.52;;;;;;;3.73;93.40;99609.06;1723235;82;21100;-81
2021/01/07 16:43:11;;;;;;;25.37;14.00;;;;;;;3.75;93.42;99602.90;1742967;80;21150;-79
2021/01/07 16:45:39;;;;;;;21.60;13.13;;;;;;;3.78;93.40;99589.45;1745800;82;21211;-81
2021/01/07 16:48:07;;;;;;;20.72;12.10;;;;;;;3.78;93.36;99587.58;1751613;80;21134;-82
2021/01/07 16:50:35;;;;;;;19.52;11.38;;;;;;;3.80;93.46;99579.23;1752196;80;21270;-78
2021/01/07 16:53:03;;;;;;;18.10;11.18;;;;;;;3.83;93.56;99578.79;1742465;80;21180;-82
2021/01/07 16:55:31;;;;;;;;;;;;;;;3.86;93.56;99593.23;1753552;80;21213;-82
2021/01/07 16:57:59;;;;;;;18.75;11.00;;;;;;;3.89;93.55;99604.15;1735096;80;20246;-85
2021/01/07 17:00:28;;;;;;;17.87;10.80;;;;;;;3.89;93.56;99595.51;1739303;81;21129;-82
2021/01/07 17:02:56;;;;;;;18.55;11.28;;;;;;;3.92;93.58;99591.02;1732743;80;21633;-82
2021/01/07 17:05:24;;;;;;;19.45;11.53;;;;;;;3.95;93.64;99591.09;1740618;80;21154;-81
2021/01/07 17:07:53;;;;;;;19.27;11.53;;;;;;;3.98;93.64;99586.05;1753375;80;21191;-85
2021/01/07 17:10:20;;;;;;;23.17;13.33;;;;;;;3.99;93.58;99594.48;1749337;80;21182;-85
2021/01/07 17:12:48;;;;;;;20.48;13.10;;;;;;;4.02;93.60;99589.15;1731466;82;21948;-85
2021/01/07 17:15:18;;;;;;;22.17;13.25;;;;;;;4.04;93.55;99580.27;1706298;82;21172;-77
2021/01/07 17:17:47;;;;;;;22.90;13.98;;;;;;;4.05;93.46;99572.47;1725755;82;21149;-85
2021/01/07 17:20:15;;;;;;;22.87;13.32;;;;;;;4.02;93.34;99558.84;1695980;83;21160;-85
2021/01/07 17:22:43;;;;;;;22.73;13.83;;;;;;;4.04;93.36;99549.97;1713576;81;21156;-84
2021/01/07 17:25:11;;;;;;;23.20;13.78;;;;;;;4.04;93.30;99545.91;1719979;81;21576;-84
2021/01/07 17:27:39;;;;;;;25.52;14.05;;;;;;;4.05;93.29;99539.97;1719582;81;21183;-86
2021/01/07 17:30:09;;;;;;;23.52;14.03;;;;;;;4.06;93.23;99549.21;1708588;81;21131;-87
2021/01/07 17:32:41;;;;;;;24.07;14.18;;;;;;;4.07;93.24;99542.75;1719169;82;21977;-87
2021/01/07 17:35:10;;;;;;;27.45;14.98;;;;;;;4.09;93.18;99528.46;1721953;81;21188;-90
2021/01/07 17:37:37;;;;;;;27.50;15.00;;;;;;;4.09;93.10;99524.40;1736307;82;21226;-84
2021/01/07 17:40:07;;;;;;;26.97;15.28;;;;;;;4.10;93.11;99517.91;1698328;83;21191;-81
2021/01/07 17:42:35;;;;;;;;;;;;;;;4.11;93.06;99500.63;1705452;81;21186;-87
2021/01/07 17:45:04;;;;;;;27.52;15.50;;;;;;;4.13;93.07;99499.03;1709304;81;20381;-81
2021/01/07 17:47:32;;;;;;;28.85;16.87;;;;;;;4.13;93.03;99499.86;1724603;83;21741;-87
2021/01/07 17:50:00;;;;;;;29.67;17.07;;;;;;;4.14;92.98;99497.47;1713582;81;21205;-84
2021/01/07 17:52:30;;;;;;;28.77;16.27;;;;;;;4.14;93.02;99494.77;1716546;81;21867;-85
2021/01/07 17:54:58;;;;;;;30.35;17.17;;;;;;;4.16;93.07;99489.94;1725275;81;21587;-87
2021/01/07 17:57:26;;;;;;;27.40;16.48;;;;;;;4.16;92.97;99479.62;1721937;81;21131;-86
2021/01/07 17:59:59;;;;;;;28.67;17.83;;;;;;;4.18;93.04;99467.52;1722079;81;21199;-84
2021/01/07 18:02:23;;;;;;;28.50;17.02;;;;;;;4.21;92.96;99460.81;1697754;83;21139;-84
2021/01/07 18:04:53;;;;;;;32.95;18.32;;;;;;;4.21;92.90;99463.53;1717427;80;21242;-84
2021/01/07 18:07:21;;;;;;;30.32;17.90;;;;;;;4.21;92.86;99460.30;1727164;80;21187;-85
2021/01/07 18:09:49;;;;;;;33.75;18.60;;;;;;;4.23;92.83;99447.34;1720849;81;21484;-79
2021/01/07 18:12:16;;;;;;;29.40;17.03;;;;;;;4.24;92.73;99446.31;1700694;81;21138;-82
2021/01/07 18:14:45;;;;;;;30.12;17.95;;;;;;;4.23;92.73;99437.87;1712048;81;21586;-82
2021/01/07 18:17:12;;;;;;;26.93;16.87;;;;;;;4.24;92.71;99432.77;1721239;81;21187;-81
2021/01/07 18:19:41;;;;;;;30.88;17.77;;;;;;;4.26;92.74;99424.40;1730167;81;21677;-78
2021/01/07 18:22:09;;;;;;;31.05;17.50;;;;;;;4.25;92.60;99415.44;1709307;81;21154;-86
2021/01/07 18:24:37;;;;;;;30.60;17.60;;;;;;;4.27;92.57;99409.81;1716183;81;21636;-82
2021/01/07 18:27:05;;;;;;;29.25;17.35;;;;;;;4.27;92.48;99401.69;1690332;83;21291;-80
2021/01/07 18:29:34;;;;;;;32.63;18.90;;;;;;;4.28;92.47;99401.45;1725596;81;21186;-87
2021/01/07 18:32:02;;;;;;;30.92;17.60;;;;;;;4.30;92.44;99397.97;1704413;80;21182;-87
2021/01/07 18:34:31;;;;;;;35.10;18.90;;;;;;;4.29;92.34;99396.34;1752927;80;21168;-87
2021/01/07 18:36:59;;;;;;;32.70;19.82;;;;;;;4.29;92.24;99398.22;1728331;78;21147;-84
2021/01/07 18:39:27;;;;;;;33.23;18.70;;;;;;;4.29;92.24;99391.45;1726146;78;21132;-83
2021/01/07 18:41:54;;;;;;;34.83;19.40;;;;;;;4.27;92.24;99380.85;1727691;81;21148;-80
2021/01/07 18:44:23;;;;;;;34.10;19.13;;;;;;;4.26;92.16;99371.06;1754085;81;21152;-84
2021/01/07 18:46:52;;;;;;;29.77;17.90;;;;;;;4.26;92.16;99371.06;1738671;81;21829;-86
2021/01/07 18:49:21;;;;;;;32.75;19.67;;;;;;;4.25;92.10;99376.17;1730078;81;21462;-89
2021/01/07 18:51:50;;;;;;;30.88;18.17;;;;;;;4.23;92.14;99353.91;1717286;81;21670;-80
2021/01/07 18:54:18;;;;;;;32.67;19.80;;;;;;;4.23;92.17;99359.33;1693049;82;21695;-83
2021/01/07 18:56:50;;;;;;;33.33;18.37;;;;;;;4.25;92.25;99353.14;1733048;81;21180;-84
2021/01/07 18:59:21;;;;;;;35.13;19.87;;;;;;;4.24;92.19;99362.34;1727485;82;21256;-81
2021/01/07 19:01:48;;;;;;;35.45;19.70;;;;;;;4.25;92.25;99353.70;1712381;81;21160;-77
2021/01/07 19:04:17;;;;;;;31.12;18.20;;;;;;;4.27;92.25;99354.29;1708545;84;21168;-86
2021/01/07 19:06:48;;;;;;;34.70;19.15;;;;;;;4.28;92.25;99349.98;1704524;82;21142;-79
2021/01/07 19:09:16;;;;;;;34.05;18.57;;;;;;;4.29;92.31;99348.94;1717856;82;21165;-80
2021/01/07 19:11:50;;;;;;;;;;;;;;;4.31;92.32;99333.27;1714694;83;21557;-79
2021/01/07 19:14:19;;;;;;;35.73;21.52;;;;;;;4.33;92.37;99337.09;1708601;82;20209;-81
2021/01/07 19:16:47;;;;;;;28.57;16.57;;;;;;;4.34;92.37;99328.76;1702908;81;21088;-77
2021/01/07 19:19:15;;;;;;;28.47;17.00;;;;;;;4.36;92.39;99317.16;1703771;81;21124;-76
2021/01/07 19:21:44;;;;;;;28.98;16.55;;;;;;;4.38;92.34;99322.33;1730742;82;21598;-77
2021/01/07 19:24:13;;;;;;;28.65;16.17;;;;;;;4.39;92.36;99316.70;1740259;82;21144;-77
2021/01/07 19:26:41;;;;;;;28.50;16.77;;;;;;;4.41;92.34;99309.16;1723569;81;21179;-77
2021/01/07 19:29:10;;;;;;;28.02;16.65;;;;;;;4.43;92.32;99305.69;1716906;82;21410;-81
2021/01/07 19:31:38;;;;;;;27.55;15.98;;;;;;;4.45;92.30;99300.05;1723241;81;21538;-87
2021/01/07 19:34:06;;;;;;;25.88;15.58;;;;;;;4.46;92.26;99293.03;1723632;82;21509;-79
2021/01/07 19:36:37;;;;;;;28.25;15.93;;;;;;;4.46;92.19;99290.33;1730895;82;21145;-82
2021/01/07 19:39:06;;;;;;;23.50;15.48;;;;;;;4.48;92.25;99280.59;1722473;82;21166;-78
2021/01/07 19:41:41;;;;;;;25.05;15.40;;;;;;;4.49;92.22;99270.90;1724309;82;21274;-83
2021/01/07 19:44:10;;;;;;;23.92;14.63;;;;;;;4.50;92.20;99259.54;1716172;81;21136;-81
2021/01/07 19:46:41;;;;;;;23.02;14.05;;;;;;;4.50;92.14;99250.86;1741623;82;21145;-80
2021/01/07 19:49:09;;;;;;;24.15;14.60;;;;;;;4.52;92.15;99249.80;1733638;82;21678;-77
2021/01/07 19:51:37;;;;;;;26.20;14.38;;;;;;;4.53;92.18;99241.98;1716853;83;21195;-79
2021/01/07 19:54:05;;;;;;;23.20;14.43;;;;;;;4.52;91.98;99230.84;1720505;81;21143;-76
2021/01/07 19:56:33;;;;;;;24.25;14.25;;;;;;;4.52;91.98;99236.26;1716238;82;21183;-77
2021/01/07 19:59:01;;;;;;;26.10;15.18;;;;;;;4.50;91.99;99229.17;1734163;83;21640;-77
2021/01/07 20:01:30;;;;;;;23.90;14.23;;;;;;;4.50;92.02;99222.95;1696709;83;21612;-77
2021/01/07 20:03:58;;;;;;;;;;;;;;;4.50;91.98;99218.89;1701921;83;21152;-78
2021/01/07 20:06:27;;;;;;;28.30;15.60;;;;;;;4.49;92.00;99208.58;1736119;81;20143;-74
2021/01/07 20:08:56;;;;;;;24.32;15.28;;;;;;;4.51;92.03;99204.27;1739819;81;21175;-75
2021/01/07 20:11:36;;;;;;;26.30;15.63;;;;;;;4.49;91.89;99200.45;1728907;82;21272;-75
2021/01/07 20:14:05;;;;;;;28.60;15.45;;;;;;;4.49;91.93;99186.91;1737049;82;21259;-79
2021/01/07 20:16:37;;;;;;;24.02;14.75;;;;;;;4.48;91.96;99189.30;1726039;82;21150;-79
2021/01/07 20:19:09;;;;;;;27.00;15.10;;;;;;;4.48;91.95;99179.82;1738133;82;21587;-82
2021/01/07 20:21:37;;;;;;;27.27;15.05;;;;;;;4.48;91.96;99181.17;1738740;82;21160;-83
2021/01/07 20:24:07;;;;;;;26.62;15.70;;;;;;;4.49;91.98;99174.71;1734785;83;21657;-83
2021/01/07 20:26:34;;;;;;;28.65;15.63;;;;;;;4.50;91.97;99165.50;1725240;81;21147;-87
2021/01/07 20:29:03;;;;;;;25.35;16.10;;;;;;;4.50;91.93;99160.08;1729212;82;21150;-78
2021/01/07 20:31:31;;;;;;;27.70;15.48;;;;;;;4.51;91.92;99155.50;1715935;82;21160;-76
2021/01/07 20:34:00;;;;;;;28.30;15.43;;;;;;;4.50;91.84;99147.89;1721091;82;21149;-73
2021/01/07 20:36:27;;;;;;;25.40;14.80;;;;;;;4.51;91.90;99147.37;1705300;82;21249;-80
2021/01/07 20:38:56;;;;;;;;;;;;;;;4.52;91.87;99141.42;1722566;83;21138;-77
2021/01/07 20:41:24;;;;;;;25.20;15.35;;;;;;;4.52;91.90;99137.36;1735619;81;20190;-84
2021/01/07 20:43:53;;;;;;;27.00;14.93;;;;;;;4.53;91.88;99133.60;1693845;83;21177;-82
2021/01/07 20:46:21;;;;;;;27.32;14.85;;;;;;;4.54;91.94;99125.75;1711418;82;21658;-84
2021/01/07 20:48:49;;;;;;;22.62;14.87;;;;;;;4.56;91.95;99117.67;1723384;81;21686;-80
2021/01/07 20:51:17;;;;;;;22.80;14.93;;;;;;;4.57;91.89;99121.22;1738988;82;21168;-82
2021/01/07 20:53:44;;;;;;;26.42;15.50;;;;;;;4.57;91.96;99107.14;1730725;82;21164;-72
2021/01/07 20:56:12;;;;;;;24.98;14.45;;;;;;;4.59;91.96;99104.18;1734905;82;21112;-86
2021/01/07 20:58:40;;;;;;;25.93;14.03;;;;;;;4.59;91.91;99098.77;1720173;83;21578;-86
2021/01/07 21:01:10;;;;;;;22.90;13.70;;;;;;;4.58;91.92;99093.06;1723088;81;21955;-74
2021/01/07 21:03:41;;;;;;;23.80;13.38;;;;;;;4.57;91.91;99087.34;1729503;81;21258;-84
2021/01/07 21:06:14;;;;;;;23.87;14.65;;;;;;;4.56;91.93;99079.73;1726697;81;21151;-89
2021/01/07 21:08:44;;;;;;;26.52;13.93;;;;;;;4.55;92.01;99075.40;1727527;82;21601;-85
2021/01/07 21:11:13;;;;;;;23.80;13.32;;;;;;;4.53;92.03;99070.72;1742400;81;21236;-85
2021/01/07 21:13:44;;;;;;;25.82;13.98;;;;;;;4.54;92.07;99063.42;1738408;82;21315;-81
2021/01/07 21:16:12;;;;;;;19.02;12.85;;;;;;;4.52;92.05;99060.97;1728734;82;21115;-83
2021/01/07 21:18:42;;;;;;;23.25;13.95;;;;;;;4.50;92.11;99047.64;1723612;82;21521;-81
2021/01/07 21:21:12;;;;;;;25.72;13.90;;;;;;;4.52;92.19;99049.30;1721423;81;21727;-82
2021/01/07 21:23:40;;;;;;;23.60;13.85;;;;;;;4.52;92.21;99039.81;1719294;82;21235;-82
2021/01/07 21:26:08;;;;;;;20.48;12.80;;;;;;;4.50;92.15;99015.69;1731258;81;21132;-82
2021/01/07 21:28:36;;;;;;;23.80;13.30;;;;;;;4.50;92.15;99015.69;1734753;82;21886;-84
2021/01/07 21:31:04;;;;;;;21.17;12.78;;;;;;;4.50;92.26;99015.69;1737764;81;21160;-81
2021/01/07 21:33:32;;;;;;;;;;;;;;;4.51;92.32;99018.67;1719575;82;21154;-84
2021/01/07 21:36:00;;;;;;;22.23;12.33;;;;;;;4.51;92.28;99014.60;1738538;81;20513;-81
2021/01/07 21:38:28;;;;;;;20.20;12.13;;;;;;;4.49;92.30;98999.95;1736445;81;21136;-84
2021/01/07 21:40:57;;;;;;;20.65;12.00;;;;;;;4.47;92.33;99003.44;1743304;81;21161;-79
2021/01/07 21:43:31;;;;;;;22.98;11.60;;;;;;;4.47;92.43;98995.84;1728537;81;21279;-75
2021/01/07 21:45:58;;;;;;;19.25;11.68;;;;;;;4.47;92.51;98996.67;1738223;81;21259;-77
2021/01/07 21:48:27;;;;;;;19.70;11.43;;;;;;;4.49;92.54;98993.70;1726809;81;21148;-76
2021/01/07 21:50:57;;;;;;;22.20;11.18;;;;;;;4.50;92.56;98990.74;1727304;81;21132;-77
2021/01/07 21:53:24;;;;;;;17.77;10.68;;;;;;;4.52;92.56;98985.10;1747690;80;21677;-84
2021/01/07 21:55:52;;;;;;;15.88;9.85;;;;;;;4.55;92.58;98985.98;1706526;83;21607;-84
2021/01/07 21:58:20;;;;;;;18.53;10.17;;;;;;;4.56;92.61;98978.66;1748626;80;21212;-77